航空気象通報

ウインドサーファーのための航空気象通報による風予報です。

6/30-7/1の航空気象通報(国内、海外)

2007年06月30日 19時05分19秒 | TAF
羽田空港
TAF RJTT 300843Z 301812 03006KT 8000 FEW010 BKN020 BKN040
TEMPO 1821 4000 -RA BR
BECMG 2124 12007KT
BECMG 0609 19012KT
日本時間1日03-06時:030度から6ノットの風
06-09時:風が変化
90-15時:120度から7ノットの風
15-18時:風が変化
18-21時:190度から12ノットの風
、但し、03-06時:ときどき、

那覇空港
ROAH 300844Z 301812 23008KT 9999 SCT015
日本時間1日03-21時:230度から8ノットの風


マウイのカフルイ空港
PHOG 301136Z 301212 04010KT P6SM SKC
FM1800 04012G18KT P6SM FEW060
FM2100 04017G25KT P6SM SCT060
FM0500 04013G20KT P6SM FEW060
ハワイ時間30日02-08時:040度から10ノットの風
08-11時:040度から12ノット、突風18ノット
11-19時:040度から17ノット、突風25ノット
19時-1日02時:040度から13ノット、突風20ノット


サイパン空港
PGSN 301127Z 301212 VRB03KT P6SM VCSH FEW020
マリアナ時間30日22時-1日22時:風向不定3ノットの風


グアム空港
TAFPQ TAF PGUM 301127Z 301212 VRB03KT P6SM VCSH FEW020
マリアナ時間30日22時-1日22時:風向不定3ノットの風
コメント
この記事をはてなブックマークに追加

6/29-30の航空気象通報(国内、海外)

2007年06月29日 21時34分39秒 | TAF
羽田空港
TAF RJTT 290844Z 291812 35004KT 9999 FEW010 SCT020 BKN040
TEMPO 1824 4000 BR
BECMG 0003 09008KT
日本時間30日03-09時:350度から4ノットの風
09-12時:風が変化
12-21時:090度から8ノットの風


那覇空港
ROAH 290844Z 291812 23010KT 9999 FEW010
日本時間30日03-21時:230度から10ノットの風


マウイのカフルイ空港
PHOG 291121Z 291212 04011KT P6SM VCSH SCT035 BKN060
FM1900 05019G27KT P6SM FEW035 SCT060
FM0500 04012KT P6SM SCT035 BKN060
ハワイ時間29日02-09時:040度から11ノットの風

09-19時:050度から19ノット、突風27ノット
19時-30日02時:040度から12ノットの風


サイパン空港
PGSN 291131Z 291212 06005KT P6SM VCSH FEW025
マリアナ時間29日22時-30日22時:060度から5ノットの風


グアム空港
TAFPQ TAF PGUM 291131Z 291212 09004KT P6SM VCSH FEW025
マリアナ時間29日22時-30日22時:090度から4ノットの風

コメント
この記事をはてなブックマークに追加

6/28-29の航空気象通報(国内、海外)

2007年06月28日 20時49分07秒 | TAF
羽田空港
TAF RJTT 280838Z 281812 19014KT 8000 FEW010 BKN030 BKN050
TEMPO 1824 4000 BR
日本時間29日03-21時:190度から14ノットの風


那覇空港
ROAH 280840Z 281812 22011KT 9999 FEW010
日本時間29日03-21時:220度から11ノットの風


マウイのカフルイ空港
PHOG 281120Z 281212 04014KT P6SM VCSH FEW035 BKN060
FM2100 05022G30KT P6SM FEW035 SCT060
FM0500 04014KT P6SM SCT035
ハワイ時間28日02-11時:040度から14ノットの風

11-19時:050度から22ノット、突風30ノット
19時-29日02時:040度から14ノットの風


サイパン空港
PGSN 281130Z 281212 08010KT P6SM VCSH FEW020
マリアナ時間28日22時-29日22時:080度から10ノットの風


グアム空港
TAFPQ TAF PGUM 281130Z 281212 08010KT P6SM VCSH FEW020
マリアナ時間28日22時-29日22時:080度から10ノットの風

コメント
この記事をはてなブックマークに追加

6/28の航空気象通報(国内)

2007年06月27日 20時33分15秒 | TAF
羽田空港
TAF RJTT 270843Z 271812 04004KT 9000 FEW020 SCT030
TEMPO 1821 4000 BR
BECMG 2124 12006KT
BECMG 0306 18010KT
日本時間28日03-06時:040度から4ノットの風
06-09時:風が変化
09-12時:120度から6ノットの風
12-15時:風が変化
15-21時:180度から10ノットの風


那覇空港
ROAH 270841Z 271812 20012KT 9999 FEW015
日本時間28日03-21時:200度から12ノットの風
コメント
この記事をはてなブックマークに追加

6/26-27の航空気象通報(国内、海外)

2007年06月26日 20時32分30秒 | TAF
羽田空港
TAF RJTT 260846Z 261812 03006KT 9000 FEW010 SCT020 BKN030
TEMPO 1824 4000 BR
BECMG 0003 12008KT
日本時間27日03-09時:030度から6ノットの風
09-12時:風が変化
12-21時:120度から8ノットの風


那覇空港
ROAH 260845Z 261812 20014KT 9999 FEW010 SCT015
日本時間27日03-21時:200度から14ノットの風


マウイのカフルイ空港
PHOG 261136Z 261212 04013KT P6SM FEW060 BKN250
FM2000 05015G23KT P6SM FEW060 BKN250
FM2300 05020G28KT P6SM SCT060 BKN250
FM0500 05015G23KT P6SM SCT060 BKN250
FM1000 05014KT P6SM FEW060 SCT250
ハワイ時間26日02-10時:040度から13ノットの風
10-13時:050度から15ノット、突風23ノット
13-19時:050度から20ノット、突風28ノット
19-24時:050度から15ノット、突風23ノット

27日00-02時:050度から14ノットの風


サイパン空港
PGSN 261131Z 261212 07010KT P6SM VCSH FEW020 SCT040
マリアナ時間26日22時-27日22時:070度から10ノットの風


グアム空港
TAFPQ TAF PGUM 261131Z 261212 07010KT P6SM VCSH FEW020 SCT040
マリアナ時間26日22時-27日22時:070度から10ノットの風

コメント
この記事をはてなブックマークに追加